Time;durP1;ratioP1;P1;durP2;ratioP2;P2;SDS_P1;SDS_P2;PMS_P1;PMS_P2;Temp;Humidity;BMP_temperature;BMP_pressure;BME280_temperature;BME280_humidity;BME280_pressure;Samples;Min_cycle;Max_cycle;Signal;HPM_P1;HPM_P2
2022/04/24 00:01:43;;;;;;;6.80;5.37;;;14.30;1.00;;;;;;5111162;28;20248;-61
2022/04/24 00:04:11;;;;;;;4.37;3.97;;;14.30;1.00;;;;;;5112237;28;20547;-61
2022/04/24 00:06:39;;;;;;;4.60;4.20;;;14.30;1.00;;;;;;5115573;28;20220;-61
2022/04/24 00:09:06;;;;;;;3.80;3.37;;;14.30;1.00;;;;;;5116268;28;20194;-61
2022/04/24 00:11:33;;;;;;;5.13;3.77;;;14.20;1.00;;;;;;5116148;28;20197;-61
2022/04/24 00:14:00;;;;;;;5.17;3.60;;;14.20;1.00;;;;;;5116322;28;20194;-61
2022/04/24 00:16:27;;;;;;;4.63;3.80;;;14.10;1.00;;;;;;5115825;28;20206;-62
2022/04/24 00:18:54;;;;;;;3.73;3.40;;;14.10;1.00;;;;;;5116099;28;20573;-61
2022/04/24 00:21:22;;;;;;;4.20;3.90;;;14.10;1.00;;;;;;5115964;28;20193;-61
2022/04/24 00:23:49;;;;;;;4.23;3.87;;;14.00;1.00;;;;;;5115983;28;20223;-61
2022/04/24 00:26:16;;;;;;;3.93;3.53;;;14.00;1.00;;;;;;5115933;28;20194;-62
2022/04/24 00:28:43;;;;;;;5.60;5.20;;;13.90;1.00;;;;;;5115489;28;20713;-61
2022/04/24 00:31:10;;;;;;;4.00;3.60;;;13.90;1.00;;;;;;5115854;28;20217;-61
2022/04/24 00:33:37;;;;;;;4.00;3.67;;;13.90;1.00;;;;;;5115666;28;20193;-61
2022/04/24 00:36:04;;;;;;;4.87;4.00;;;13.90;1.00;;;;;;5115705;28;20197;-61
2022/04/24 00:38:34;;;;;;;7.13;5.37;;;13.90;1.00;;;;;;5115722;28;20198;-61
2022/04/24 00:41:01;;;;;;;4.97;4.57;;;13.90;1.00;;;;;;5115691;28;20189;-61
2022/04/24 00:43:28;;;;;;;6.70;6.20;;;13.80;1.00;;;;;;5115640;28;20625;-61
2022/04/24 00:46:09;;;;;;;6.03;4.67;;;13.80;1.00;;;;;;5115497;28;20198;-62
2022/04/24 00:48:36;;;;;;;4.13;3.80;;;13.70;1.00;;;;;;5115646;28;20205;-61
2022/04/24 00:51:03;;;;;;;4.90;3.87;;;13.80;1.00;;;;;;5115559;28;20198;-61
2022/04/24 00:53:30;;;;;;;5.50;5.10;;;13.70;1.00;;;;;;5116906;28;20197;-61
2022/04/24 00:55:58;;;;;;;5.23;4.83;;;13.70;1.00;;;;;;5115428;28;20193;-62
2022/04/24 00:58:25;;;;;;;4.30;3.90;;;13.70;1.00;;;;;;5115236;28;20204;-61
2022/04/24 01:00:53;;;;;;;4.80;4.40;;;13.70;1.00;;;;;;5114935;28;20260;-61
2022/04/24 01:03:20;;;;;;;5.60;5.20;;;13.70;1.00;;;;;;5115056;28;20243;-61
2022/04/24 01:05:47;;;;;;;4.53;4.23;;;13.70;1.00;;;;;;5115202;28;20197;-61
2022/04/24 01:08:14;;;;;;;4.17;3.77;;;13.70;1.00;;;;;;5115006;28;20209;-61
2022/04/24 01:10:41;;;;;;;3.80;3.57;;;13.60;1.00;;;;;;5115109;28;20288;-61
2022/04/24 01:13:10;;;;;;;9.57;8.77;;;13.60;1.00;;;;;;5114717;28;20300;-62
2022/04/24 01:15:37;;;;;;;5.47;5.07;;;13.60;1.00;;;;;;5114873;28;20229;-61
2022/04/24 01:18:04;;;;;;;4.00;3.70;;;13.60;1.00;;;;;;5114964;28;20189;-61
2022/04/24 01:20:34;;;;;;;48.20;25.23;;;13.60;1.00;;;;;;5115065;28;20208;-61
2022/04/24 01:23:01;;;;;;;7.90;7.23;;;13.60;1.00;;;;;;5114824;28;20201;-61
2022/04/24 01:25:28;;;;;;;4.20;3.80;;;13.60;1.00;;;;;;5114743;28;20253;-61
2022/04/24 01:27:55;;;;;;;6.13;5.67;;;13.60;1.00;;;;;;5114637;28;20210;-62
2022/04/24 01:30:22;;;;;;;5.80;5.30;;;13.50;1.00;;;;;;5114329;28;20197;-61
2022/04/24 01:32:49;;;;;;;7.63;5.57;;;13.50;1.00;;;;;;5114544;28;20209;-61
2022/04/24 01:35:15;;;;;;;4.87;4.37;;;13.40;1.00;;;;;;5114565;28;20208;-61
2022/04/24 01:37:44;;;;;;;9.63;5.50;;;13.40;1.00;;;;;;5114591;28;20200;-61
2022/04/24 01:40:11;;;;;;;15.13;11.40;;;13.30;1.00;;;;;;5114199;28;20194;-61
2022/04/24 01:42:38;;;;;;;7.77;6.97;;;13.30;1.00;;;;;;5114507;28;20206;-61
2022/04/24 01:45:06;;;;;;;34.73;18.80;;;13.20;1.00;;;;;;5114150;28;20194;-61
2022/04/24 01:47:33;;;;;;;57.80;23.90;;;13.10;1.00;;;;;;5113957;28;20224;-61
2022/04/24 01:50:00;;;;;;;27.83;20.67;;;13.00;1.00;;;;;;5113989;28;20679;-61
2022/04/24 01:52:27;;;;;;;35.33;16.93;;;12.90;1.00;;;;;;5116374;28;20201;-61
2022/04/24 01:54:55;;;;;;;8.40;7.57;;;12.80;1.00;;;;;;5113922;28;20685;-61
2022/04/24 01:57:22;;;;;;;26.17;11.20;;;12.70;1.00;;;;;;5114091;28;20197;-61
2022/04/24 01:59:49;;;;;;;5.10;4.57;;;12.60;1.00;;;;;;5113858;28;20209;-61
2022/04/24 02:02:16;;;;;;;139.33;61.50;;;12.50;1.00;;;;;;5113975;28;20186;-61
2022/04/24 02:04:44;;;;;;;21.10;13.17;;;12.40;1.00;;;;;;5114017;28;20208;-61
2022/04/24 02:07:11;;;;;;;4.73;4.23;;;12.30;1.00;;;;;;5113894;28;20217;-61
2022/04/24 02:09:39;;;;;;;26.87;23.87;;;12.20;1.00;;;;;;5114081;27;20232;-61
2022/04/24 02:12:08;;;;;;;64.73;32.30;;;12.10;1.00;;;;;;5113954;28;20227;-62
2022/04/24 02:14:35;;;;;;;58.10;39.97;;;12.00;1.00;;;;;;5113792;28;20192;-61
2022/04/24 02:17:02;;;;;;;97.93;52.87;;;11.90;1.00;;;;;;5113786;28;20202;-61
2022/04/24 02:19:29;;;;;;;16.07;11.77;;;11.90;1.00;;;;;;5113615;28;20201;-61
2022/04/24 02:21:56;;;;;;;35.43;30.77;;;11.80;1.00;;;;;;5113378;28;20562;-61
2022/04/24 02:24:22;;;;;;;318.70;140.80;;;11.80;1.00;;;;;;5113822;28;20197;-61
2022/04/24 02:26:49;;;;;;;157.73;88.03;;;11.70;1.00;;;;;;5112728;28;20669;-61
2022/04/24 02:29:18;;;;;;;168.30;74.73;;;11.70;1.00;;;;;;5113422;28;20616;-61
2022/04/24 02:31:45;;;;;;;69.20;31.37;;;11.60;1.00;;;;;;5113422;28;20577;-61
2022/04/24 02:34:12;;;;;;;143.57;82.80;;;11.60;1.00;;;;;;5113619;28;20209;-61
2022/04/24 02:36:39;;;;;;;349.17;139.53;;;11.50;1.00;;;;;;5113366;28;20204;-61
2022/04/24 02:39:06;;;;;;;108.20;65.33;;;11.50;1.00;;;;;;5113471;28;20192;-61
2022/04/24 02:41:33;;;;;;;385.33;172.60;;;11.50;1.00;;;;;;5113332;28;20203;-61
2022/04/24 02:44:00;;;;;;;124.37;80.70;;;11.50;1.00;;;;;;5113307;28;20210;-61
2022/04/24 02:46:28;;;;;;;224.07;134.83;;;11.40;1.00;;;;;;5113279;28;20201;-61
2022/04/24 02:48:55;;;;;;;82.97;65.63;;;11.40;1.00;;;;;;5113161;28;20230;-61
2022/04/24 02:51:22;;;;;;;50.90;44.23;;;11.30;1.00;;;;;;5112917;28;20195;-61
2022/04/24 02:53:49;;;;;;;250.63;150.77;;;11.30;1.00;;;;;;5112922;28;20794;-61
2022/04/24 02:56:16;;;;;;;61.37;56.00;;;11.20;1.00;;;;;;5112797;28;20203;-61
2022/04/24 02:58:44;;;;;;;79.20;72.13;;;11.20;1.00;;;;;;5113286;28;20192;-61
2022/04/24 03:01:11;;;;;;;85.83;52.57;;;11.10;1.00;;;;;;5112848;28;20238;-61
2022/04/24 03:03:42;;;;;;;84.77;74.17;;;11.10;1.00;;;;;;5112807;28;20682;-60
2022/04/24 03:06:09;;;;;;;611.27;226.17;;;11.00;1.00;;;;;;5113177;28;20237;-60
2022/04/24 03:08:36;;;;;;;26.40;24.63;;;11.00;1.00;;;;;;5115188;28;20267;-61
2022/04/24 03:11:03;;;;;;;214.40;148.77;;;11.00;1.00;;;;;;5113048;28;20206;-61
2022/04/24 03:13:30;;;;;;;37.97;34.37;;;11.00;1.00;;;;;;5112651;28;20667;-61
2022/04/24 03:15:57;;;;;;;248.47;135.53;;;10.90;1.30;;;;;;5113267;28;20202;-60
2022/04/24 03:18:24;;;;;;;238.47;148.70;;;10.90;2.70;;;;;;5112530;28;20198;-61
2022/04/24 03:20:52;;;;;;;153.27;92.97;;;10.80;4.70;;;;;;5112959;28;20206;-60
2022/04/24 03:23:19;;;;;;;256.70;140.50;;;10.80;4.60;;;;;;5113098;28;20541;-61
2022/04/24 03:25:46;;;;;;;60.80;54.63;;;10.70;6.50;;;;;;5112919;28;20204;-61
2022/04/24 03:28:13;;;;;;;149.57;102.87;;;10.70;7.70;;;;;;5112312;28;20705;-61
2022/04/24 03:30:40;;;;;;;107.27;96.07;;;10.60;7.60;;;;;;5112918;28;20220;-60
2022/04/24 03:33:07;;;;;;;439.57;255.47;;;10.60;7.60;;;;;;5112568;28;20199;-60
2022/04/24 03:35:33;;;;;;;438.13;201.00;;;10.60;9.00;;;;;;5112786;28;20194;-60
2022/04/24 03:38:02;;;;;;;325.30;143.60;;;10.60;9.90;;;;;;5115156;28;20193;-61
2022/04/24 03:40:29;;;;;;;366.50;194.10;;;10.60;11.10;;;;;;5116505;28;20655;-61
2022/04/24 03:42:56;;;;;;;22.23;20.43;;;10.50;12.40;;;;;;5116771;28;20186;-61
2022/04/24 03:45:23;;;;;;;89.63;64.47;;;10.50;14.30;;;;;;5116426;28;20200;-61
2022/04/24 03:47:51;;;;;;;124.93;64.00;;;10.50;16.30;;;;;;5116635;28;20349;-60
2022/04/24 03:50:19;;;;;;;121.60;105.57;;;10.40;18.70;;;;;;5116651;28;20201;-60
2022/04/24 03:52:46;;;;;;;24.37;22.60;;;10.40;21.30;;;;;;5116842;28;20251;-61
2022/04/24 03:55:14;;;;;;;15.97;14.80;;;10.40;25.00;;;;;;5116515;28;20198;-61
2022/04/24 03:57:42;;;;;;;59.03;54.47;;;10.30;26.00;;;;;;5116485;28;20220;-60
2022/04/24 04:00:09;;;;;;;14.27;13.13;;;10.30;25.80;;;;;;5116181;28;20230;-60
2022/04/24 04:02:43;;;;;;;15.83;14.77;;;10.20;24.60;;;;;;5116248;28;20309;-61
2022/04/24 04:05:10;;;;;;;16.90;15.67;;;10.10;25.20;;;;;;5116430;28;20178;-60
2022/04/24 04:07:37;;;;;;;104.47;93.57;;;10.00;27.40;;;;;;5116272;28;20208;-60
2022/04/24 04:10:04;;;;;;;20.77;19.03;;;10.00;30.00;;;;;;5116317;28;20201;-60
2022/04/24 04:12:33;;;;;;;39.93;25.33;;;9.90;33.00;;;;;;5116220;28;20217;-61
2022/04/24 04:15:01;;;;;;;38.80;35.60;;;9.90;35.20;;;;;;5116233;28;20204;-60
2022/04/24 04:17:28;;;;;;;10.93;10.23;;;9.90;38.70;;;;;;5115822;28;20655;-61
2022/04/24 04:19:55;;;;;;;28.67;25.63;;;9.90;40.50;;;;;;5116091;28;20246;-61
2022/04/24 04:22:22;;;;;;;193.40;128.23;;;9.80;44.80;;;;;;5116180;28;20198;-61
2022/04/24 04:24:49;;;;;;;136.37;91.57;;;9.80;48.80;;;;;;5116001;28;20198;-60
2022/04/24 04:27:16;;;;;;;87.33;62.67;;;9.80;51.80;;;;;;5115985;28;20554;-60
2022/04/24 04:29:45;;;;;;;84.23;75.93;;;9.80;56.10;;;;;;5115596;28;20309;-60
2022/04/24 04:32:11;;;;;;;140.23;117.07;;;9.70;57.70;;;;;;5115345;28;20673;-60
2022/04/24 04:34:38;;;;;;;31.83;29.03;;;9.70;64.70;;;;;;5115495;28;20724;-59
2022/04/24 04:37:06;;;;;;;75.53;65.70;;;9.60;72.70;;;;;;5115490;28;20667;-59
2022/04/24 04:39:33;;;;;;;543.03;216.60;;;9.70;81.00;;;;;;5115662;28;20239;-60
2022/04/24 04:41:59;;;;;;;50.83;44.13;;;9.70;91.20;;;;;;5115346;28;20562;-61
2022/04/24 04:44:26;;;;;;;17.30;16.13;;;9.70;95.50;;;;;;5115795;28;20204;-59
2022/04/24 04:46:55;;;;;;;33.60;20.17;;;9.70;97.70;;;;;;5115456;28;20197;-60
2022/04/24 04:49:21;;;;;;;23.57;21.73;;;9.70;99.90;;;;;;5114743;28;20557;-62
2022/04/24 04:51:48;;;;;;;150.43;117.17;;;9.60;99.90;;;;;;5116948;28;20696;-61
2022/04/24 04:54:15;;;;;;;68.83;61.60;;;9.60;99.90;;;;;;5115662;28;20193;-61
2022/04/24 04:56:42;;;;;;;238.53;85.40;;;9.60;99.90;;;;;;5115288;28;20197;-61
2022/04/24 04:59:09;;;;;;;555.23;230.20;;;9.70;99.90;;;;;;5115292;28;20255;-61
2022/04/24 05:01:36;;;;;;;84.73;76.27;;;9.70;99.90;;;;;;5114924;28;20244;-61
2022/04/24 05:04:05;;;;;;;534.13;256.53;;;9.70;99.90;;;;;;5115027;28;20194;-61
2022/04/24 05:06:32;;;;;;;71.77;64.73;;;9.70;99.90;;;;;;5115117;28;20212;-61
2022/04/24 05:08:58;;;;;;;211.60;114.57;;;9.80;99.90;;;;;;5115188;28;20274;-61
2022/04/24 05:11:25;;;;;;;46.73;43.20;;;9.80;99.90;;;;;;5115006;28;20295;-61
2022/04/24 05:13:52;;;;;;;530.47;213.10;;;9.80;99.90;;;;;;5115284;28;20558;-61
2022/04/24 05:16:19;;;;;;;101.33;68.90;;;9.90;99.90;;;;;;5115054;28;20205;-61
2022/04/24 05:18:46;;;;;;;91.87;66.80;;;10.00;99.90;;;;;;5114590;28;20583;-61
2022/04/24 05:21:16;;;;;;;134.70;79.90;;;10.00;99.90;;;;;;5114885;28;20201;-61
2022/04/24 05:23:46;;;;;;;39.20;36.10;;;10.10;99.90;;;;;;5114917;28;20187;-61
2022/04/24 05:26:13;;;;;;;154.87;64.90;;;10.30;99.90;;;;;;5113996;28;20289;-61
2022/04/24 05:28:40;;;;;;;61.17;38.00;;;10.40;92.30;;;;;;5114433;28;20630;-61
2022/04/24 05:31:07;;;;;;;162.87;84.67;;;10.50;77.40;;;;;;5114220;28;20205;-61
2022/04/24 05:33:33;;;;;;;14.13;12.87;;;10.70;61.60;;;;;;5114565;28;20293;-60
2022/04/24 05:36:08;;;;;;;232.43;78.77;;;10.70;60.50;;;;;;5114334;28;20181;-61
2022/04/24 05:38:37;;;;;;;43.60;35.63;;;10.80;49.40;;;;;;5114171;28;20200;-62
2022/04/24 05:41:04;;;;;;;91.00;65.03;;;10.90;38.30;;;;;;5114498;28;20199;-62
2022/04/24 05:43:31;;;;;;;131.37;72.10;;;10.90;36.10;;;;;;5114554;28;20555;-62
2022/04/24 05:45:58;;;;;;;37.93;28.93;;;11.00;42.90;;;;;;5114128;28;20198;-60
2022/04/24 05:48:25;;;;;;;48.40;27.23;;;11.60;22.40;;;;;;5114510;28;20224;-60
2022/04/24 05:50:52;;;;;;;26.57;16.40;;;11.80;5.40;;;;;;5114227;28;20258;-61
2022/04/24 05:53:19;;;;;;;23.87;14.43;;;12.00;1.00;;;;;;5113886;28;20208;-61
2022/04/24 05:55:47;;;;;;;24.07;10.97;;;12.20;1.00;;;;;;5114168;28;20200;-61
2022/04/24 05:58:14;;;;;;;34.40;25.07;;;12.30;1.00;;;;;;5114044;28;20529;-61
2022/04/24 06:00:41;;;;;;;36.30;15.43;;;12.20;1.00;;;;;;5112929;28;20228;-61
2022/04/24 06:03:08;;;;;;;9.50;8.77;;;12.40;1.00;;;;;;5114257;28;20211;-61
2022/04/24 06:05:35;;;;;;;23.13;13.53;;;12.60;1.00;;;;;;5113489;28;20194;-62
2022/04/24 06:08:02;;;;;;;8.60;7.93;;;12.70;1.00;;;;;;5114035;28;20201;-61
2022/04/24 06:10:29;;;;;;;12.30;10.97;;;12.80;1.00;;;;;;5113447;28;20209;-62
2022/04/24 06:12:58;;;;;;;11.83;8.50;;;12.90;1.00;;;;;;5113433;28;20208;-62
2022/04/24 06:15:26;;;;;;;9.07;8.27;;;13.10;1.00;;;;;;5113127;28;20292;-61
2022/04/24 06:17:54;;;;;;;10.53;9.50;;;13.00;1.00;;;;;;5113209;28;20194;-61
2022/04/24 06:20:23;;;;;;;16.33;13.03;;;13.20;1.00;;;;;;5113200;28;20193;-61
2022/04/24 06:22:51;;;;;;;12.30;11.23;;;13.20;1.00;;;;;;5113611;28;20198;-61
2022/04/24 06:25:19;;;;;;;9.33;8.53;;;13.40;1.00;;;;;;5113616;28;20216;-61
2022/04/24 06:27:47;;;;;;;7.17;6.47;;;13.40;1.00;;;;;;5115905;28;20212;-61
2022/04/24 06:30:16;;;;;;;10.73;9.73;;;13.70;1.00;;;;;;5113394;28;20214;-62
2022/04/24 06:32:44;;;;;;;10.50;9.60;;;13.90;1.00;;;;;;5113440;28;20213;-60
2022/04/24 06:35:13;;;;;;;6.90;6.30;;;14.20;1.00;;;;;;5113427;28;20201;-61
2022/04/24 06:37:41;;;;;;;9.03;8.23;;;14.30;1.00;;;;;;5113437;28;20197;-61
2022/04/24 06:40:10;;;;;;;9.10;8.27;;;14.30;1.00;;;;;;5113008;28;20198;-61
2022/04/24 06:42:48;;;;;;;7.73;6.93;;;14.40;1.00;;;;;;5113040;28;20201;-62
2022/04/24 06:45:17;;;;;;;8.80;8.13;;;14.40;1.00;;;;;;5112954;28;20189;-61
2022/04/24 06:47:45;;;;;;;9.37;8.53;;;14.10;1.00;;;;;;5113331;28;20207;-61
2022/04/24 06:50:12;;;;;;;9.77;8.97;;;14.00;1.00;;;;;;5113191;28;20214;-62
2022/04/24 06:52:39;;;;;;;6.90;6.40;;;13.90;1.00;;;;;;5113235;28;20200;-62
2022/04/24 06:55:07;;;;;;;7.57;6.87;;;14.50;1.00;;;;;;5112377;28;20212;-62
2022/04/24 06:57:34;;;;;;;7.40;6.77;;;14.80;1.00;;;;;;5113154;28;20639;-62
2022/04/24 07:00:02;;;;;;;11.50;8.10;;;15.10;1.00;;;;;;5112772;28;20596;-62
2022/04/24 07:02:30;;;;;;;7.73;7.07;;;15.10;1.00;;;;;;5113028;28;20187;-62
2022/04/24 07:04:57;;;;;;;9.43;8.53;;;15.00;1.00;;;;;;5112653;28;20190;-62
2022/04/24 07:07:24;;;;;;;8.63;7.83;;;14.90;1.00;;;;;;5113006;28;20596;-61
2022/04/24 07:09:51;;;;;;;8.97;8.27;;;15.10;1.00;;;;;;5112777;28;20209;-61
2022/04/24 07:12:18;;;;;;;7.80;7.20;;;15.10;1.00;;;;;;5112425;28;20205;-61
2022/04/24 07:14:45;;;;;;;9.33;8.50;;;15.10;1.00;;;;;;5113003;28;20650;-62
2022/04/24 07:17:12;;;;;;;6.93;6.20;;;15.40;1.00;;;;;;5113278;28;20206;-61
2022/04/24 07:19:40;;;;;;;8.07;7.03;;;15.50;1.00;;;;;;5112453;28;20210;-62
2022/04/24 07:22:07;;;;;;;60.90;19.10;;;15.50;1.00;;;;;;5112568;28;20201;-61
2022/04/24 07:24:34;;;;;;;15.43;10.37;;;15.30;1.00;;;;;;5112829;28;20201;-62
2022/04/24 07:27:01;;;;;;;25.87;11.93;;;15.30;1.00;;;;;;5112884;28;20201;-62
2022/04/24 07:29:28;;;;;;;8.63;6.70;;;15.30;1.00;;;;;;5112660;28;20197;-62
2022/04/24 07:31:55;;;;;;;36.90;8.90;;;15.60;1.00;;;;;;5112167;28;20212;-65
2022/04/24 07:34:22;;;;;;;8.87;8.03;;;16.00;1.00;;;;;;5117306;28;20194;-61
2022/04/24 07:36:50;;;;;;;8.03;7.30;;;16.00;1.00;;;;;;5112779;28;20211;-61
2022/04/24 07:39:17;;;;;;;8.23;7.60;;;15.90;1.00;;;;;;5111572;28;20193;-61
2022/04/24 07:41:44;;;;;;;10.30;9.27;;;16.00;1.00;;;;;;5112724;28;20199;-62
2022/04/24 07:44:11;;;;;;;6.63;6.03;;;16.00;1.00;;;;;;5112141;28;20191;-62
2022/04/24 07:46:37;;;;;;;8.30;7.50;;;16.10;1.00;;;;;;5112080;28;20200;-63
2022/04/24 07:49:04;;;;;;;7.60;6.83;;;16.30;1.00;;;;;;5111935;28;20224;-62
2022/04/24 07:51:31;;;;;;;9.73;8.03;;;16.30;1.00;;;;;;5112026;28;20196;-63
2022/04/24 07:53:59;;;;;;;9.47;8.57;;;16.70;1.00;;;;;;5112212;28;20200;-63
2022/04/24 07:56:26;;;;;;;11.53;8.60;;;16.70;1.00;;;;;;5111217;28;20548;-63
2022/04/24 07:58:53;;;;;;;8.43;7.60;;;16.90;1.00;;;;;;5111860;28;20191;-63
2022/04/24 08:01:20;;;;;;;6.70;6.10;;;16.60;1.00;;;;;;5111200;28;20236;-62
2022/04/24 08:03:47;;;;;;;8.00;7.20;;;17.00;1.00;;;;;;5112076;28;20574;-62
2022/04/24 08:06:15;;;;;;;8.03;7.33;;;17.60;1.00;;;;;;5111709;28;20197;-62
2022/04/24 08:08:42;;;;;;;8.73;7.10;;;17.50;1.00;;;;;;5111942;28;20223;-62
2022/04/24 08:11:10;;;;;;;7.47;6.77;;;17.50;1.00;;;;;;5111583;28;20266;-63
2022/04/24 08:13:37;;;;;;;7.97;7.30;;;17.60;1.00;;;;;;5112413;28;20194;-62
2022/04/24 08:16:05;;;;;;;25.43;9.77;;;17.50;1.00;;;;;;5111980;28;20215;-63
2022/04/24 08:18:32;;;;;;;7.77;6.97;;;17.70;1.00;;;;;;5111856;28;20618;-62
2022/04/24 08:20:59;;;;;;;6.93;6.40;;;17.90;1.00;;;;;;5112381;28;20201;-62
2022/04/24 08:23:26;;;;;;;7.43;6.63;;;17.90;1.00;;;;;;5112189;28;20267;-63
2022/04/24 08:25:53;;;;;;;9.23;6.93;;;18.20;1.00;;;;;;5116049;28;20201;-62
2022/04/24 08:28:21;;;;;;;18.63;9.87;;;18.40;1.00;;;;;;5115841;28;20198;-63
2022/04/24 08:30:48;;;;;;;8.07;7.30;;;18.60;1.00;;;;;;5115361;28;20240;-63
2022/04/24 08:33:17;;;;;;;10.03;9.17;;;18.80;1.00;;;;;;5115168;28;20231;-62
2022/04/24 08:35:45;;;;;;;9.17;7.87;;;18.70;1.00;;;;;;5115131;28;20566;-61
2022/04/24 08:38:12;;;;;;;10.13;8.70;;;18.60;1.00;;;;;;5115456;28;20259;-63
2022/04/24 08:40:39;;;;;;;7.53;6.83;;;19.10;1.00;;;;;;5115777;28;20615;-63
2022/04/24 08:43:06;;;;;;;8.40;7.40;;;18.60;1.00;;;;;;5115650;28;20201;-62
2022/04/24 08:45:35;;;;;;;8.43;6.72;;;18.50;1.00;;;;;;5116526;28;20212;-62
2022/04/24 08:48:04;;;;;;;8.85;7.95;;;18.50;1.00;;;;;;5113927;28;20576;-62
2022/04/24 08:50:32;;;;;;;7.23;6.63;;;18.60;1.00;;;;;;5114930;28;20819;-62
2022/04/24 08:52:59;;;;;;;7.90;6.60;;;18.70;1.00;;;;;;5115256;28;20207;-62
2022/04/24 08:55:28;;;;;;;8.23;7.50;;;19.20;1.00;;;;;;5113718;28;20185;-63
2022/04/24 08:57:56;;;;;;;7.63;6.93;;;19.00;1.00;;;;;;5114303;28;20205;-63
2022/04/24 09:00:24;;;;;;;7.53;6.83;;;19.10;1.00;;;;;;5114033;28;20575;-63
2022/04/24 09:02:52;;;;;;;7.45;6.68;;;19.20;1.00;;;;;;5114160;28;20440;-62
2022/04/24 09:05:21;;;;;;;7.63;6.95;;;19.10;1.00;;;;;;5114732;28;20201;-62
2022/04/24 09:07:48;;;;;;;7.85;7.15;;;19.20;1.00;;;;;;5114118;28;20568;-62
2022/04/24 09:10:15;;;;;;;7.80;7.20;;;19.30;1.00;;;;;;5114620;28;20717;-62
2022/04/24 09:12:42;;;;;;;9.40;7.23;;;19.10;1.00;;;;;;5114618;28;20190;-63
2022/04/24 09:15:09;;;;;;;9.73;7.30;;;19.40;1.00;;;;;;5114320;28;20655;-63
2022/04/24 09:17:38;;;;;;;8.13;7.35;;;19.40;1.00;;;;;;5113952;28;20210;-62
2022/04/24 09:20:18;;;;;;;8.00;7.20;;;19.10;1.00;;;;;;5114827;28;20217;-62
2022/04/24 09:22:46;;;;;;;7.45;6.85;;;19.20;1.00;;;;;;5114836;28;20197;-63
2022/04/24 09:25:13;;;;;;;9.40;7.63;;;19.00;1.00;;;;;;5115166;28;20204;-63
2022/04/24 09:27:41;;;;;;;7.80;7.20;;;19.50;1.00;;;;;;5114224;28;20198;-61
2022/04/24 09:30:12;;;;;;;9.07;8.20;;;19.80;1.00;;;;;;5112615;28;20698;-63
2022/04/24 09:32:47;;;;;;;8.50;7.70;;;20.00;1.00;;;;;;5112736;28;20286;-62
2022/04/24 09:35:25;;;;;;;8.68;7.07;;;20.00;1.00;;;;;;5113481;28;20192;-62
2022/04/24 09:37:52;;;;;;;9.63;7.95;;;20.00;1.00;;;;;;5113459;28;20243;-62
2022/04/24 09:40:20;;;;;;;9.50;8.00;;;20.00;1.00;;;;;;5113668;28;20194;-62
2022/04/24 09:42:54;;;;;;;11.98;9.80;;;19.70;1.00;;;;;;5113685;28;20678;-62
2022/04/24 09:45:25;;;;;;;9.30;8.60;;;19.80;1.00;;;;;;5113720;28;20647;-62
2022/04/24 09:47:59;;;;;;;9.77;7.43;;;19.90;1.00;;;;;;5114161;28;20176;-61
2022/04/24 09:50:30;;;;;;;10.52;7.53;;;19.80;1.00;;;;;;5114179;28;20201;-62
2022/04/24 09:52:58;;;;;;;8.45;7.32;;;20.00;1.00;;;;;;5113730;28;20619;-62
2022/04/24 09:55:26;;;;;;;8.30;7.50;;;20.10;1.00;;;;;;5113968;28;20193;-63
2022/04/24 09:57:55;;;;;;;8.90;7.85;;;19.90;1.00;;;;;;5113957;28;20298;-63
2022/04/24 10:00:23;;;;;;;7.95;7.30;;;20.20;1.00;;;;;;5113497;28;20235;-63
2022/04/24 10:02:51;;;;;;;10.60;8.75;;;20.20;1.00;;;;;;5113994;28;20229;-62
2022/04/24 10:05:18;;;;;;;9.75;8.85;;;20.60;1.00;;;;;;5113768;28;20201;-62
2022/04/24 10:07:47;;;;;;;18.00;9.85;;;20.40;1.00;;;;;;5113964;28;20201;-65
2022/04/24 10:10:16;;;;;;;10.35;9.55;;;20.90;1.00;;;;;;5112992;28;20694;-65
2022/04/24 10:12:48;;;;;;;21.08;8.07;;;20.70;1.00;;;;;;5113206;28;20212;-65
2022/04/24 10:15:18;;;;;;;9.75;8.90;;;20.60;1.00;;;;;;5113635;28;20185;-65
2022/04/24 10:18:01;;;;;;;8.95;7.97;;;20.70;1.00;;;;;;5113625;28;20189;-65
2022/04/24 10:20:41;;;;;;;8.73;7.93;;;20.90;1.00;;;;;;5113423;28;20196;-65
2022/04/24 10:23:10;;;;;;;7.88;7.20;;;20.70;1.00;;;;;;5113356;28;20185;-65
2022/04/24 10:25:38;;;;;;;9.50;7.95;;;20.90;1.00;;;;;;5113160;28;20208;-65
2022/04/24 10:28:14;;;;;;;9.02;8.23;;;20.40;1.00;;;;;;5113000;28;20718;-65
2022/04/24 10:30:41;;;;;;;8.18;7.50;;;20.80;1.00;;;;;;5113272;28;20216;-65
2022/04/24 10:33:18;;;;;;;11.98;7.55;;;20.80;1.00;;;;;;5113273;28;20198;-65
2022/04/24 10:35:52;;;;;;;7.80;7.20;;;21.40;1.00;;;;;;5113401;28;20518;-65
2022/04/24 10:38:23;;;;;;;8.70;8.00;;;22.10;1.00;;;;;;5113188;28;20593;-66
2022/04/24 10:40:58;;;;;;;10.88;9.68;;;21.90;1.00;;;;;;5112700;28;20265;-65
2022/04/24 10:43:25;;;;;;;27.27;11.18;;;21.40;1.00;;;;;;5113103;28;20220;-63
2022/04/24 10:45:53;;;;;;;11.45;10.30;;;21.10;1.00;;;;;;5112747;28;20206;-65
2022/04/24 10:48:21;;;;;;;11.75;8.00;;;21.40;1.00;;;;;;5112584;28;20189;-65
2022/04/24 10:50:49;;;;;;;11.57;10.45;;;21.60;1.00;;;;;;5112611;28;20228;-65
2022/04/24 10:53:16;;;;;;;10.18;9.00;;;21.70;1.00;;;;;;5113265;28;20197;-64
2022/04/24 10:55:45;;;;;;;9.75;8.63;;;21.60;1.00;;;;;;5112833;28;20198;-65
2022/04/24 10:58:13;;;;;;;15.48;8.65;;;21.40;1.00;;;;;;5112575;28;20206;-65
2022/04/24 11:00:41;;;;;;;9.73;8.82;;;21.60;1.00;;;;;;5112215;28;20324;-65
2022/04/24 11:03:13;;;;;;;11.02;10.02;;;21.80;1.00;;;;;;5112598;28;20245;-66
2022/04/24 11:05:42;;;;;;;13.90;8.55;;;22.10;1.00;;;;;;5112804;28;20202;-66
2022/04/24 11:08:14;;;;;;;10.90;7.95;;;22.10;1.00;;;;;;5112377;28;20190;-67
2022/04/24 11:10:43;;;;;;;22.60;9.63;;;22.30;1.00;;;;;;5112635;28;20341;-67
2022/04/24 11:13:12;;;;;;;8.40;7.60;;;22.00;1.00;;;;;;5112728;28;20185;-66
2022/04/24 11:15:44;;;;;;;11.60;10.50;;;21.80;1.00;;;;;;5112531;28;20194;-66
2022/04/24 11:18:19;;;;;;;9.60;8.60;;;21.70;1.00;;;;;;5112566;28;20280;-66
2022/04/24 11:20:55;;;;;;;9.23;8.43;;;21.60;1.00;;;;;;5112297;28;20197;-66
2022/04/24 11:23:25;;;;;;;9.55;8.68;;;21.90;1.00;;;;;;5112613;28;20186;-65
2022/04/24 11:25:54;;;;;;;7.90;7.32;;;21.60;1.00;;;;;;5112429;28;20185;-65
2022/04/24 11:28:33;;;;;;;9.25;8.45;;;21.80;1.00;;;;;;5112434;28;20236;-65
2022/04/24 11:31:09;;;;;;;8.02;7.28;;;21.80;1.00;;;;;;5112081;28;20581;-64
2022/04/24 11:33:36;;;;;;;8.05;7.35;;;22.20;1.00;;;;;;5112284;28;20593;-64
2022/04/24 11:36:05;;;;;;;14.80;7.72;;;22.30;1.00;;;;;;5112065;28;20217;-64
2022/04/24 11:38:32;;;;;;;8.75;8.05;;;22.40;1.00;;;;;;5112615;28;20194;-65
2022/04/24 11:41:03;;;;;;;9.77;8.25;;;22.50;1.00;;;;;;5112546;28;20193;-62
2022/04/24 11:43:31;;;;;;;8.90;8.18;;;22.80;1.00;;;;;;5112435;28;20182;-62
2022/04/24 11:51:27;;;;;;;14.35;12.57;;;22.40;1.00;;;;;;5112306;28;20213;-62
2022/04/24 11:53:54;;;;;;;8.68;7.97;;;22.40;1.00;;;;;;5112236;28;20198;-63
2022/04/24 11:56:21;;;;;;;7.13;6.60;;;21.90;1.00;;;;;;5111678;28;20194;-63
2022/04/24 11:58:50;;;;;;;7.53;6.82;;;21.90;1.00;;;;;;5112958;28;20201;-63
2022/04/24 12:01:18;;;;;;;8.05;7.45;;;22.50;1.00;;;;;;5115298;28;20217;-63
2022/04/24 12:03:46;;;;;;;8.18;7.50;;;22.10;1.00;;;;;;5115173;28;20186;-63
2022/04/24 12:06:14;;;;;;;7.82;7.22;;;22.40;1.00;;;;;;5114429;28;20251;-63
2022/04/24 12:08:45;;;;;;;8.32;7.72;;;22.40;1.00;;;;;;5115903;28;20292;-63
2022/04/24 12:11:24;;;;;;;8.40;7.63;;;22.50;1.00;;;;;;5115762;28;20205;-63
2022/04/24 12:14:01;;;;;;;17.15;8.52;;;21.70;1.00;;;;;;5115454;28;20243;-61
2022/04/24 12:16:28;;;;;;;7.47;6.88;;;20.80;1.00;;;;;;5115517;28;20553;-63
2022/04/24 12:18:56;;;;;;;7.32;6.65;;;19.90;1.00;;;;;;5115070;28;20658;-63
2022/04/24 12:21:23;;;;;;;6.75;6.25;;;20.40;1.00;;;;;;5113907;28;20221;-63
2022/04/24 12:23:50;;;;;;;7.47;6.78;;;21.60;1.00;;;;;;5093915;28;20867;-63
2022/04/24 12:26:17;;;;;;;6.47;5.97;;;22.30;1.00;;;;;;5094539;28;20209;-64
2022/04/24 12:28:44;;;;;;;7.97;6.25;;;21.70;1.00;;;;;;5094477;28;20190;-63
2022/04/24 12:31:22;;;;;;;6.75;6.07;;;20.90;1.00;;;;;;5093919;28;20257;-63
2022/04/24 12:33:52;;;;;;;6.85;6.30;;;21.80;1.00;;;;;;5094582;28;20236;-64
2022/04/24 12:36:20;;;;;;;6.60;6.10;;;22.20;1.00;;;;;;5093947;28;20209;-63
2022/04/24 12:38:58;;;;;;;6.22;5.80;;;21.70;1.00;;;;;;5094372;28;20201;-64
2022/04/24 12:41:27;;;;;;;6.88;6.25;;;21.20;1.00;;;;;;5093761;28;20690;-64
2022/04/24 12:43:55;;;;;;;6.90;6.20;;;21.20;1.00;;;;;;5094177;28;20241;-65
2022/04/24 12:46:23;;;;;;;7.07;6.38;;;20.80;1.00;;;;;;5094089;28;20194;-64
2022/04/24 12:48:52;;;;;;;6.28;5.82;;;20.20;1.00;;;;;;5094227;28;20191;-63
2022/04/24 12:51:21;;;;;;;6.38;5.75;;;19.70;1.00;;;;;;5093341;28;20214;-65
2022/04/24 12:53:48;;;;;;;6.95;6.35;;;19.50;1.00;;;;;;5099818;28;20325;-64
2022/04/24 12:56:15;;;;;;;6.38;5.88;;;19.20;1.00;;;;;;5114236;27;20316;-64